Time;durP1;ratioP1;P1;durP2;ratioP2;P2;SDS_P1;SDS_P2;PMS_P1;PMS_P2;Temp;Humidity;BMP_temperature;BMP_pressure;BME280_temperature;BME280_humidity;BME280_pressure;Samples;Min_cycle;Max_cycle;Signal;HPM_P1;HPM_P2
2021/12/14 00:00:26;;;;;;;12.23;6.78;;;4.00;99.90;;;;;;5118053;27;20047;-87
2021/12/14 00:02:54;;;;;;;6.28;5.68;;;4.10;99.90;;;;;;5117932;27;20043;-87
2021/12/14 00:05:23;;;;;;;9.00;6.80;;;4.10;99.90;;;;;;5136013;27;20138;-86
2021/12/14 00:07:53;;;;;;;12.88;7.53;;;4.10;99.90;;;;;;5136031;27;20477;-86
2021/12/14 00:10:47;;;;;;;9.65;6.93;;;4.10;99.90;;;;;;5117890;27;20053;-87
2021/12/14 00:14:25;;;;;;;7.85;6.10;;;4.10;99.90;;;;;;5117637;27;20043;-86
2021/12/14 00:16:11;;;;;;;8.05;6.47;;;4.20;99.90;;;;;;5121643;27;20074;-86
2021/12/14 00:18:39;;;;;;;8.07;6.38;;;4.20;99.90;;;;;;5135796;27;20129;-86
2021/12/14 00:21:19;;;;;;;7.03;5.75;;;4.30;99.90;;;;;;5117779;27;20054;-86
2021/12/14 00:26:52;;;;;;;7.10;6.25;;;4.20;99.90;;;;;;5101181;27;20047;-86
2021/12/14 00:29:23;;;;;;;8.20;5.90;;;4.30;99.90;;;;;;5117429;27;20047;-87
2021/12/14 00:31:52;;;;;;;11.18;6.00;;;4.30;99.90;;;;;;5116553;27;20517;-86
2021/12/14 00:34:35;;;;;;;6.65;5.93;;;4.20;99.90;;;;;;5117172;27;20406;-86
2021/12/14 00:37:06;;;;;;;7.25;6.60;;;4.30;99.90;;;;;;5117292;27;20047;-86
2021/12/14 00:39:32;;;;;;;7.38;5.35;;;4.30;99.90;;;;;;5117092;27;20051;-86
2021/12/14 00:41:59;;;;;;;9.55;6.30;;;4.30;99.90;;;;;;5117267;27;20053;-86
2021/12/14 00:44:26;;;;;;;8.45;5.90;;;4.30;99.90;;;;;;5117509;27;20051;-86
2021/12/14 00:46:53;;;;;;;6.50;5.60;;;4.30;99.90;;;;;;5135032;27;20469;-86
2021/12/14 00:49:20;;;;;;;5.55;5.05;;;4.30;99.90;;;;;;5117039;27;20487;-86
2021/12/14 00:51:48;;;;;;;6.50;5.47;;;4.30;99.90;;;;;;5117045;27;20049;-86
2021/12/14 00:54:16;;;;;;;8.02;5.97;;;4.40;99.90;;;;;;5135069;27;20486;-86
2021/12/14 00:56:46;;;;;;;6.20;5.60;;;4.40;99.90;;;;;;5117055;27;20043;-86
2021/12/14 00:59:14;;;;;;;6.68;5.38;;;4.30;99.90;;;;;;5116808;27;20051;-86
2021/12/14 01:01:47;;;;;;;6.70;5.25;;;4.30;99.90;;;;;;5116994;27;20482;-86
2021/12/14 01:04:24;;;;;;;6.57;5.63;;;4.40;99.90;;;;;;5117128;27;20415;-87
2021/12/14 01:06:51;;;;;;;9.82;5.38;;;4.40;99.90;;;;;;5135060;27;20053;-86
2021/12/14 01:09:28;;;;;;;6.93;4.82;;;4.40;99.90;;;;;;5142651;27;20031;-86
2021/12/14 01:12:02;;;;;;;5.60;4.85;;;4.40;99.90;;;;;;5152854;27;20070;-86
2021/12/14 01:15:10;;;;;;;6.13;5.25;;;4.40;99.90;;;;;;5118301;27;20053;-86
2021/12/14 01:17:53;;;;;;;5.97;5.30;;;4.40;99.90;;;;;;5116846;27;20039;-86
2021/12/14 01:20:30;;;;;;;6.35;5.30;;;4.40;99.90;;;;;;5116643;27;20057;-86
2021/12/14 01:23:01;;;;;;;6.70;5.53;;;4.40;99.90;;;;;;5134391;27;20055;-85
2021/12/14 01:25:35;;;;;;;7.10;6.30;;;4.40;99.90;;;;;;5134561;27;20406;-86
2021/12/14 01:28:08;;;;;;;7.32;5.35;;;4.30;99.90;;;;;;5116567;27;20475;-86
2021/12/14 01:30:53;;;;;;;8.63;5.57;;;4.40;99.90;;;;;;5116288;27;20406;-86
2021/12/14 01:33:22;;;;;;;7.30;5.68;;;4.40;99.90;;;;;;5116331;28;20055;-86
2021/12/14 01:35:49;;;;;;;6.95;5.13;;;4.30;99.90;;;;;;5134548;27;20047;-86
2021/12/14 01:40:58;;;;;;;5.30;4.80;;;4.40;99.90;;;;;;5134322;28;20051;-86
2021/12/14 01:43:36;;;;;;;6.28;5.35;;;4.50;99.90;;;;;;5133914;27;20512;-86
2021/12/14 01:46:10;;;;;;;5.68;4.93;;;4.50;99.90;;;;;;5116205;28;20043;-86
2021/12/14 01:48:39;;;;;;;6.20;5.18;;;4.50;99.90;;;;;;5134369;28;20054;-86
2021/12/14 01:51:08;;;;;;;6.40;4.95;;;4.50;99.90;;;;;;5116061;28;20049;-86
2021/12/14 01:53:38;;;;;;;6.07;5.47;;;4.50;99.90;;;;;;5134154;28;20043;-86
2021/12/14 01:56:11;;;;;;;8.57;5.35;;;4.50;99.90;;;;;;5116338;28;20057;-86
2021/12/14 01:58:49;;;;;;;7.50;5.40;;;4.50;99.90;;;;;;5134182;28;20411;-86
2021/12/14 02:01:28;;;;;;;7.80;5.63;;;4.50;99.90;;;;;;5116173;28;20122;-86
2021/12/14 02:03:59;;;;;;;6.18;5.57;;;4.50;99.90;;;;;;5134281;28;20054;-86
2021/12/14 02:06:32;;;;;;;5.40;4.90;;;4.50;99.90;;;;;;5115865;28;20059;-86
2021/12/14 02:09:14;;;;;;;5.78;5.22;;;4.50;99.90;;;;;;5134116;28;20050;-86
2021/12/14 02:11:45;;;;;;;8.60;6.00;;;4.50;99.90;;;;;;5116199;28;20057;-87
2021/12/14 02:14:12;;;;;;;6.63;5.22;;;4.50;99.90;;;;;;5115997;28;20055;-86
2021/12/14 02:16:39;;;;;;;6.25;5.60;;;4.50;99.90;;;;;;5134192;28;20045;-87
2021/12/14 02:19:13;;;;;;;9.00;5.25;;;4.40;99.90;;;;;;5133580;28;20104;-87
2021/12/14 02:21:43;;;;;;;7.25;4.90;;;4.40;99.90;;;;;;5116277;28;20525;-86
2021/12/14 02:24:11;;;;;;;6.72;5.53;;;4.40;99.90;;;;;;5134278;28;20043;-87
2021/12/14 02:26:42;;;;;;;7.40;6.32;;;4.40;99.90;;;;;;5125651;28;20130;-87
2021/12/14 02:29:20;;;;;;;7.80;6.18;;;4.50;99.90;;;;;;5116358;28;20133;-86
2021/12/14 02:31:47;;;;;;;7.65;5.65;;;4.30;99.90;;;;;;5115779;28;20055;-86
2021/12/14 02:34:14;;;;;;;8.95;7.22;;;4.20;99.90;;;;;;5133799;28;20082;-86
2021/12/14 02:36:44;;;;;;;7.15;5.45;;;4.30;99.90;;;;;;5115958;28;20470;-86
2021/12/14 02:39:46;;;;;;;6.90;5.85;;;4.40;99.90;;;;;;5115737;28;20410;-85
2021/12/14 02:42:23;;;;;;;7.43;5.95;;;4.40;99.90;;;;;;5133881;28;20130;-87
2021/12/14 02:44:52;;;;;;;6.35;5.72;;;4.40;99.90;;;;;;5116245;28;20043;-86
2021/12/14 02:47:21;;;;;;;7.93;5.53;;;4.40;99.90;;;;;;5115947;28;20051;-86
2021/12/14 02:49:49;;;;;;;6.50;5.82;;;4.40;99.90;;;;;;5133768;28;20054;-87
2021/12/14 02:52:26;;;;;;;10.60;5.93;;;4.50;99.90;;;;;;5116668;28;20130;-87
2021/12/14 02:54:56;;;;;;;8.15;6.20;;;4.40;99.90;;;;;;5116499;27;20051;-86
2021/12/14 02:57:26;;;;;;;6.03;4.65;;;4.30;99.90;;;;;;5119442;27;20126;-86
2021/12/14 02:59:55;;;;;;;6.25;5.68;;;4.40;99.90;;;;;;5119352;27;20057;-86
2021/12/14 03:02:26;;;;;;;7.35;6.05;;;4.40;99.90;;;;;;5137145;27;20470;-86
2021/12/14 03:05:04;;;;;;;5.18;4.75;;;4.40;99.90;;;;;;5119118;27;20047;-87
2021/12/14 03:07:38;;;;;;;6.22;5.20;;;4.50;99.90;;;;;;5137543;27;20100;-86
2021/12/14 03:10:17;;;;;;;;;;;4.50;99.90;;;;;;5137645;27;20051;-86
2021/12/14 03:12:48;;;;;;;11.02;5.53;;;4.50;99.90;;;;;;5137111;27;19976;-86
2021/12/14 03:15:24;;;;;;;6.63;5.38;;;4.50;99.90;;;;;;5119201;27;20057;-86
2021/12/14 03:17:54;;;;;;;6.95;5.28;;;4.50;99.90;;;;;;5137281;27;20410;-86
2021/12/14 03:20:31;;;;;;;8.88;5.95;;;4.50;99.90;;;;;;5118587;27;20051;-86
2021/12/14 03:23:10;;;;;;;5.20;4.47;;;4.50;99.90;;;;;;5118810;27;20082;-87
2021/12/14 03:25:41;;;;;;;6.57;5.40;;;4.50;99.90;;;;;;5118957;27;20058;-87
2021/12/14 03:28:11;;;;;;;5.47;4.97;;;4.60;99.90;;;;;;5118930;27;20047;-86
2021/12/14 03:30:47;;;;;;;11.20;5.68;;;4.60;99.90;;;;;;5136567;27;20055;-87
2021/12/14 03:33:21;;;;;;;5.97;4.80;;;4.50;99.90;;;;;;5118750;27;20047;-86
2021/12/14 03:36:01;;;;;;;10.75;6.15;;;4.60;99.90;;;;;;5118655;27;20047;-86
2021/12/14 03:38:52;;;;;;;7.32;5.78;;;4.40;99.90;;;;;;5112546;27;20043;-86
2021/12/14 03:41:34;;;;;;;5.28;4.78;;;4.30;99.90;;;;;;5127620;27;20043;-86
2021/12/14 03:44:06;;;;;;;5.32;4.82;;;4.40;99.90;;;;;;5119365;27;20051;-86
2021/12/14 03:46:41;;;;;;;5.75;5.15;;;4.40;99.90;;;;;;5118376;27;20055;-86
2021/12/14 03:49:08;;;;;;;7.18;5.85;;;4.40;99.90;;;;;;5118369;27;20047;-87
2021/12/14 03:51:35;;;;;;;5.18;4.68;;;4.40;99.90;;;;;;5118449;27;20047;-86
2021/12/14 03:54:03;;;;;;;5.18;4.68;;;4.50;99.90;;;;;;5118037;27;20046;-87
2021/12/14 03:56:30;;;;;;;5.70;4.57;;;4.50;99.90;;;;;;5136346;27;20051;-86
2021/12/14 03:58:57;;;;;;;4.70;4.38;;;4.50;99.90;;;;;;5117876;27;20043;-87
2021/12/14 04:01:31;;;;;;;9.38;5.25;;;4.60;99.90;;;;;;5136181;27;20500;-86
2021/12/14 04:04:11;;;;;;;7.30;4.90;;;4.60;99.90;;;;;;5135996;27;20047;-87
2021/12/14 04:06:39;;;;;;;8.65;4.88;;;4.50;99.90;;;;;;5118070;27;20387;-86
2021/12/14 04:09:09;;;;;;;5.60;5.10;;;4.50;99.90;;;;;;5119563;27;20047;-87
2021/12/14 04:11:36;;;;;;;7.38;5.38;;;4.60;99.90;;;;;;5139047;27;20479;-86
2021/12/14 04:14:03;;;;;;;5.63;5.13;;;4.60;99.90;;;;;;5117769;27;20051;-86
2021/12/14 04:16:30;;;;;;;6.32;4.80;;;4.60;99.90;;;;;;5135963;27;20047;-86
2021/12/14 04:19:03;;;;;;;7.78;5.70;;;4.60;99.90;;;;;;5117654;27;20043;-86
2021/12/14 04:21:33;;;;;;;5.65;5.15;;;4.50;99.90;;;;;;5117598;27;20521;-87
2021/12/14 04:24:01;;;;;;;7.00;5.65;;;4.50;99.90;;;;;;5135497;27;20050;-86
2021/12/14 04:26:28;;;;;;;5.75;5.20;;;4.50;99.90;;;;;;5117637;27;20510;-86
2021/12/14 04:28:58;;;;;;;5.47;4.68;;;4.50;99.90;;;;;;5117376;27;20057;-86
2021/12/14 04:31:34;;;;;;;8.77;7.45;;;4.50;99.90;;;;;;5135382;27;20058;-86
2021/12/14 04:34:01;;;;;;;7.40;6.18;;;4.50;99.90;;;;;;5117329;27;20047;-86
2021/12/14 04:36:29;;;;;;;7.68;5.40;;;4.40;99.90;;;;;;5117547;27;20040;-87
2021/12/14 04:39:02;;;;;;;5.68;5.10;;;4.50;99.90;;;;;;5117112;27;20126;-86
2021/12/14 04:53:10;;;;;;;7.18;5.57;;;4.50;99.90;;;;;;5135170;27;20050;-86
2021/12/14 04:55:43;;;;;;;5.97;5.38;;;4.50;99.90;;;;;;5137192;27;20053;-87
2021/12/14 04:58:11;;;;;;;5.70;5.17;;;4.50;99.90;;;;;;5118103;27;20466;-87
2021/12/14 05:00:45;;;;;;;5.40;4.82;;;4.60;99.90;;;;;;5117008;27;20057;-86
2021/12/14 05:03:20;;;;;;;6.72;5.45;;;4.50;99.90;;;;;;5116771;27;20082;-87
2021/12/14 05:05:50;;;;;;;5.90;5.40;;;4.50;99.90;;;;;;5117047;27;20138;-86
2021/12/14 05:11:03;;;;;;;6.00;5.18;;;4.60;99.90;;;;;;5134649;27;20047;-87
2021/12/14 05:13:35;;;;;;;7.15;5.18;;;4.60;99.90;;;;;;5116892;27;20047;-86
2021/12/14 05:16:03;;;;;;;5.03;4.57;;;4.70;99.90;;;;;;5134719;27;20078;-87
2021/12/14 05:18:30;;;;;;;5.22;4.75;;;4.70;99.90;;;;;;5116445;27;20134;-87
2021/12/14 05:20:58;;;;;;;6.05;4.82;;;4.70;99.90;;;;;;5134568;27;20047;-86
2021/12/14 05:23:28;;;;;;;8.77;6.25;;;4.70;99.90;;;;;;5134347;27;20562;-86
2021/12/14 05:26:02;;;;;;;6.70;6.10;;;4.70;99.90;;;;;;5134483;27;20054;-87
2021/12/14 05:28:29;;;;;;;9.88;5.55;;;4.70;99.90;;;;;;5116733;27;20043;-87
2021/12/14 05:30:58;;;;;;;7.10;6.47;;;4.70;99.90;;;;;;5116456;27;20047;-87
2021/12/14 05:33:29;;;;;;;11.95;7.20;;;4.70;99.90;;;;;;5116278;27;20050;-87
2021/12/14 05:36:01;;;;;;;8.90;6.85;;;4.60;99.90;;;;;;5116784;27;20043;-86
2021/12/14 05:43:05;;;;;;;8.45;7.57;;;4.70;99.90;;;;;;5134337;27;20082;-86
2021/12/14 05:43:58;;;;;;;11.70;9.20;;;4.60;99.90;;;;;;5134277;28;20134;-86
2021/12/14 05:46:27;;;;;;;9.90;8.77;;;4.60;99.90;;;;;;5134855;28;20089;-89
2021/12/14 05:49:00;;;;;;;9.93;8.63;;;4.60;99.90;;;;;;5116324;28;20543;-89
2021/12/14 05:51:30;;;;;;;11.20;7.63;;;4.60;99.90;;;;;;5134661;28;20376;-89
2021/12/14 05:54:00;;;;;;;10.73;7.47;;;4.60;99.90;;;;;;5116645;28;20082;-87
2021/12/14 05:56:28;;;;;;;7.93;6.60;;;4.60;99.90;;;;;;5116302;28;20054;-86
2021/12/14 05:58:57;;;;;;;6.07;5.47;;;4.60;99.90;;;;;;5116104;28;20051;-86
2021/12/14 06:01:28;;;;;;;6.30;5.68;;;4.60;99.90;;;;;;5116316;28;20058;-86
2021/12/14 06:04:04;;;;;;;6.30;5.80;;;4.60;99.90;;;;;;5133678;28;20043;-87
2021/12/14 06:06:36;;;;;;;6.00;5.50;;;4.70;99.90;;;;;;5134325;28;20053;-86
2021/12/14 06:09:13;;;;;;;4.88;4.40;;;4.70;99.90;;;;;;5115817;28;20051;-86
2021/12/14 06:11:43;;;;;;;8.93;5.32;;;4.70;99.90;;;;;;5134357;28;20082;-87
2021/12/14 06:14:20;;;;;;;7.47;6.78;;;4.70;99.90;;;;;;5135290;28;20142;-86
2021/12/14 06:16:49;;;;;;;9.90;7.00;;;4.70;99.90;;;;;;5134039;28;20055;-86
2021/12/14 06:19:19;;;;;;;10.07;7.47;;;4.60;99.90;;;;;;5115742;28;20039;-86
2021/12/14 06:21:49;;;;;;;10.63;9.15;;;4.70;99.90;;;;;;5116106;28;20060;-86
2021/12/14 06:24:16;;;;;;;12.85;10.23;;;4.70;99.90;;;;;;5133943;28;20047;-86
2021/12/14 06:26:50;;;;;;;14.70;10.73;;;4.80;99.90;;;;;;5133989;28;20047;-87
2021/12/14 06:29:22;;;;;;;54.53;30.02;;;4.80;99.90;;;;;;5116116;28;20086;-86
2021/12/14 06:31:50;;;;;;;32.17;19.35;;;4.80;99.90;;;;;;5119579;27;20051;-86
2021/12/14 06:34:23;;;;;;;24.88;15.25;;;4.80;99.90;;;;;;5137690;27;20055;-87
2021/12/14 06:40:10;;;;;;;16.00;10.13;;;4.80;99.90;;;;;;5137586;27;20043;-85
2021/12/14 06:42:40;;;;;;;10.77;8.00;;;4.70;99.90;;;;;;5137766;27;20134;-86
2021/12/14 06:45:09;;;;;;;13.20;7.57;;;4.70;99.90;;;;;;5119489;27;20538;-86
2021/12/14 06:47:38;;;;;;;8.43;6.72;;;4.70;99.90;;;;;;5119932;27;20043;-86
2021/12/14 06:50:13;;;;;;;8.85;6.63;;;4.70;99.90;;;;;;5119506;27;20093;-86
2021/12/14 06:52:40;;;;;;;9.23;6.70;;;4.70;99.90;;;;;;5119452;27;20047;-86
2021/12/14 06:55:18;;;;;;;11.93;8.05;;;4.70;99.90;;;;;;5119222;27;20134;-86
2021/12/14 06:57:45;;;;;;;8.02;5.43;;;4.60;99.90;;;;;;5137663;27;20053;-86
2021/12/14 07:00:12;;;;;;;6.72;4.90;;;4.70;99.90;;;;;;5137097;27;20047;-86
2021/12/14 07:02:48;;;;;;;8.45;5.55;;;4.70;99.90;;;;;;5119119;27;20491;-86
2021/12/14 07:05:24;;;;;;;5.38;4.88;;;4.70;99.90;;;;;;5119133;27;20043;-86
2021/12/14 07:07:51;;;;;;;7.07;5.43;;;4.70;99.90;;;;;;5119243;27;20077;-86
2021/12/14 07:10:19;;;;;;;9.10;7.70;;;4.80;99.90;;;;;;5118556;27;20061;-86
2021/12/14 07:12:46;;;;;;;9.30;7.68;;;4.70;99.90;;;;;;5118938;27;20053;-86
2021/12/14 07:15:26;;;;;;;9.50;6.97;;;4.80;99.90;;;;;;5117688;27;20061;-86
2021/12/14 07:18:03;;;;;;;6.80;6.10;;;4.80;99.90;;;;;;5119210;27;20049;-86
2021/12/14 07:21:00;;;;;;;5.80;5.05;;;4.90;99.90;;;;;;5110325;27;20380;-86
2021/12/14 07:23:31;;;;;;;6.05;5.00;;;4.80;99.90;;;;;;5096505;27;20039;-86
2021/12/14 07:26:10;;;;;;;6.85;5.13;;;4.90;99.90;;;;;;5098452;28;20054;-86
2021/12/14 07:28:42;;;;;;;4.97;4.57;;;5.00;99.90;;;;;;5104338;28;20460;-86
2021/12/14 07:31:22;;;;;;;8.93;5.82;;;5.00;99.90;;;;;;5098205;28;20110;-86
2021/12/14 07:33:56;;;;;;;11.20;7.88;;;5.00;99.90;;;;;;5098325;28;20073;-86
2021/12/14 07:36:32;;;;;;;8.98;4.82;;;5.00;99.90;;;;;;5098567;28;20051;-86
2021/12/14 07:39:10;;;;;;;4.70;4.05;;;4.90;99.90;;;;;;5115770;28;20083;-86
2021/12/14 07:41:45;;;;;;;5.57;4.43;;;4.90;99.90;;;;;;5118437;27;20086;-87
2021/12/14 07:44:19;;;;;;;5.35;4.10;;;5.00;99.90;;;;;;5099226;28;20055;-86
2021/12/14 07:46:58;;;;;;;5.20;4.30;;;5.00;99.90;;;;;;5116008;28;20050;-86
2021/12/14 07:49:46;;;;;;;4.45;4.05;;;5.10;99.90;;;;;;5116074;28;20048;-86
2021/12/14 07:52:17;;;;;;;5.43;4.85;;;5.10;99.90;;;;;;5115485;28;20136;-86
2021/12/14 07:54:56;;;;;;;19.17;9.18;;;5.20;99.90;;;;;;5097637;28;20044;-86
2021/12/14 07:57:29;;;;;;;15.02;8.52;;;5.20;99.90;;;;;;5115595;28;20414;-86
2021/12/14 08:00:07;;;;;;;19.98;9.23;;;5.20;99.90;;;;;;5115396;28;20043;-86
2021/12/14 08:02:37;;;;;;;9.05;6.28;;;5.20;99.90;;;;;;5097410;28;20406;-87
2021/12/14 08:05:17;;;;;;;8.13;5.55;;;5.20;99.90;;;;;;5115193;28;20439;-86
2021/12/14 08:08:10;;;;;;;9.93;6.18;;;5.20;99.90;;;;;;5097547;28;20043;-88
2021/12/14 08:10:44;;;;;;;11.32;6.95;;;5.30;99.90;;;;;;5097509;28;20048;-86
2021/12/14 08:13:23;;;;;;;10.20;6.95;;;5.30;99.90;;;;;;5102981;27;20048;-86
2021/12/14 08:15:58;;;;;;;11.77;6.57;;;5.40;99.90;;;;;;5117514;27;20079;-86
2021/12/14 08:18:32;;;;;;;13.27;7.25;;;5.40;99.90;;;;;;5117787;27;20055;-86
2021/12/14 08:21:04;;;;;;;;;;;5.30;99.90;;;;;;5117887;27;20047;-86
2021/12/14 08:23:49;;;;;;;9.32;5.97;;;5.30;99.90;;;;;;5135437;27;19919;-86
2021/12/14 08:26:18;;;;;;;7.18;6.22;;;5.40;99.90;;;;;;5117693;27;20047;-86
2021/12/14 08:28:48;;;;;;;7.60;5.70;;;5.50;99.90;;;;;;5117220;27;20051;-86
2021/12/14 08:31:16;;;;;;;11.90;6.38;;;5.60;99.90;;;;;;5116540;27;20494;-87
2021/12/14 08:33:43;;;;;;;11.93;6.18;;;5.50;99.90;;;;;;5117039;27;20145;-86
2021/12/14 08:36:12;;;;;;;9.65;6.45;;;5.60;99.90;;;;;;5116981;27;20409;-87
2021/12/14 08:38:39;;;;;;;11.60;7.20;;;5.60;99.90;;;;;;5117385;27;20047;-87
2021/12/14 08:41:20;;;;;;;21.80;9.48;;;5.60;99.90;;;;;;5116831;27;20046;-87
2021/12/14 08:43:50;;;;;;;14.68;8.15;;;5.70;99.90;;;;;;5138763;27;20092;-87
2021/12/14 08:46:27;;;;;;;13.65;8.05;;;5.60;99.90;;;;;;5118951;27;20057;-87
2021/12/14 08:48:57;;;;;;;11.65;7.57;;;5.70;99.90;;;;;;5116892;27;20047;-87
2021/12/14 08:51:32;;;;;;;11.80;7.22;;;5.70;99.90;;;;;;5135026;27;20153;-87
2021/12/14 08:54:06;;;;;;;8.57;6.65;;;5.80;99.90;;;;;;5116155;27;20127;-86
2021/12/14 08:56:38;;;;;;;7.95;6.07;;;6.00;99.90;;;;;;5134913;27;20065;-85
2021/12/14 08:59:06;;;;;;;6.95;4.28;;;6.00;99.90;;;;;;5134579;27;20057;-87
2021/12/14 09:01:35;;;;;;;8.07;7.18;;;6.10;99.90;;;;;;5116749;27;20051;-87
2021/12/14 09:04:11;;;;;;;7.80;6.65;;;6.20;99.90;;;;;;5116895;27;20039;-87
2021/12/14 09:06:41;;;;;;;7.70;6.45;;;6.30;99.90;;;;;;5117042;27;20423;-87
2021/12/14 09:09:11;;;;;;;10.85;8.80;;;6.40;99.90;;;;;;5116336;27;20055;-87
2021/12/14 09:11:41;;;;;;;8.60;7.70;;;6.50;99.90;;;;;;5116064;27;20047;-87
2021/12/14 09:14:13;;;;;;;5.15;4.65;;;6.50;99.90;;;;;;5117377;27;20406;-87
2021/12/14 09:16:43;;;;;;;4.40;4.00;;;6.50;99.90;;;;;;5117117;27;20043;-87
2021/12/14 09:19:16;;;;;;;9.95;7.53;;;6.60;99.90;;;;;;5116422;27;20146;-87
2021/12/14 09:21:45;;;;;;;19.77;17.77;;;6.50;99.90;;;;;;5117078;28;20054;-87
2021/12/14 09:24:16;;;;;;;10.80;8.70;;;6.50;99.90;;;;;;5116747;27;20134;-86
2021/12/14 09:26:48;;;;;;;12.40;11.18;;;6.50;99.90;;;;;;5116536;27;20047;-87
2021/12/14 09:29:18;;;;;;;10.25;9.15;;;6.60;99.90;;;;;;5116476;27;20039;-86
2021/12/14 09:31:48;;;;;;;9.43;8.30;;;6.80;99.90;;;;;;5115931;28;20577;-87
2021/12/14 09:34:21;;;;;;;5.03;4.63;;;6.80;99.90;;;;;;5116294;27;20435;-86
2021/12/14 09:36:50;;;;;;;3.95;3.65;;;6.80;99.90;;;;;;5116222;27;20487;-87
2021/12/14 09:39:29;;;;;;;3.25;2.97;;;6.80;99.90;;;;;;5116867;27;20055;-86
2021/12/14 09:42:00;;;;;;;2.38;2.28;;;6.90;99.90;;;;;;5116384;28;20077;-87
2021/12/14 09:44:31;;;;;;;2.17;2.08;;;6.90;99.90;;;;;;5116417;28;20126;-86
2021/12/14 09:47:01;;;;;;;2.17;1.80;;;6.90;99.90;;;;;;5115949;28;20047;-87
2021/12/14 09:49:28;;;;;;;2.28;2.17;;;6.90;99.90;;;;;;5115975;28;20072;-86
2021/12/14 09:52:10;;;;;;;1.95;1.85;;;7.00;99.90;;;;;;5134541;28;20517;-87
2021/12/14 09:54:37;;;;;;;3.67;3.40;;;7.00;99.90;;;;;;5116762;28;20050;-87
2021/12/14 09:57:10;;;;;;;8.10;5.85;;;7.10;99.90;;;;;;5116291;28;20082;-87
2021/12/14 09:59:38;;;;;;;21.73;17.25;;;7.30;99.90;;;;;;5132006;28;20085;-87
2021/12/14 10:02:13;;;;;;;8.40;7.03;;;7.40;99.90;;;;;;5119052;28;20134;-87
2021/12/14 10:04:51;;;;;;;15.25;13.65;;;7.50;99.90;;;;;;5136623;27;20047;-87
2021/12/14 10:07:19;;;;;;;8.40;7.65;;;7.50;99.90;;;;;;5121075;27;20078;-87
2021/12/14 10:09:48;;;;;;;4.90;4.57;;;7.50;99.90;;;;;;5120472;27;20040;-87
2021/12/14 10:14:52;;;;;;;2.92;2.70;;;7.30;99.90;;;;;;5138214;27;20507;-87
2021/12/14 10:17:22;;;;;;;5.68;4.38;;;7.20;99.90;;;;;;5120489;27;20047;-87
2021/12/14 10:19:50;;;;;;;7.97;6.85;;;7.20;99.90;;;;;;5138283;27;20043;-87
2021/12/14 10:22:23;;;;;;;6.60;5.28;;;7.10;99.90;;;;;;5138351;27;20043;-87
2021/12/14 10:25:00;;;;;;;5.55;3.85;;;7.20;99.90;;;;;;5138219;27;20096;-87
2021/12/14 10:27:30;;;;;;;5.10;4.70;;;7.30;99.90;;;;;;5119977;27;20467;-87
2021/12/14 10:29:59;;;;;;;4.18;3.78;;;7.30;99.90;;;;;;5137894;27;20074;-87
2021/12/14 10:32:31;;;;;;;7.03;6.35;;;7.40;99.90;;;;;;5120151;27;20138;-87
2021/12/14 10:35:11;;;;;;;6.07;5.38;;;7.40;99.90;;;;;;5119489;27;20092;-87
2021/12/14 10:38:10;;;;;;;4.45;3.67;;;7.50;99.90;;;;;;5122882;27;20078;-87
2021/12/14 10:43:28;;;;;;;4.53;4.10;;;7.70;99.90;;;;;;5137865;27;20032;-87
2021/12/14 10:45:58;;;;;;;4.05;3.70;;;7.70;99.90;;;;;;5119832;27;20051;-86
2021/12/14 10:48:30;;;;;;;4.18;3.88;;;7.70;99.90;;;;;;5137955;27;20055;-87
2021/12/14 10:51:02;;;;;;;4.05;3.65;;;7.70;99.90;;;;;;5119656;27;20125;-87
2021/12/14 10:53:28;;;;;;;4.03;3.65;;;7.70;99.90;;;;;;5119906;27;20130;-87
2021/12/14 10:56:05;;;;;;;4.15;3.85;;;7.70;99.90;;;;;;5119678;27;20051;-87
2021/12/14 10:58:32;;;;;;;4.75;4.35;;;7.60;99.90;;;;;;5119863;27;20079;-87
2021/12/14 11:01:08;;;;;;;4.55;4.25;;;7.70;99.90;;;;;;5119464;27;20051;-87
2021/12/14 11:03:43;;;;;;;4.80;4.40;;;7.80;99.90;;;;;;5137670;27;20491;-87
2021/12/14 11:06:13;;;;;;;5.88;4.95;;;7.80;99.90;;;;;;5119591;27;20134;-87
2021/12/14 11:09:40;;;;;;;7.47;6.88;;;7.80;99.90;;;;;;5119578;27;20047;-87
2021/12/14 11:11:50;;;;;;;10.27;9.38;;;7.80;99.90;;;;;;5137674;27;20085;-87
2021/12/14 11:14:26;;;;;;;5.25;4.75;;;7.90;99.90;;;;;;5133458;27;20103;-87
2021/12/14 11:19:50;;;;;;;4.65;4.25;;;8.00;99.90;;;;;;5137511;27;20533;-87
2021/12/14 11:22:21;;;;;;;4.82;4.35;;;8.10;99.90;;;;;;5119203;27;20043;-87
2021/12/14 11:24:54;;;;;;;5.68;4.05;;;8.20;99.90;;;;;;5119188;27;20053;-87
2021/12/14 11:27:28;;;;;;;3.70;3.30;;;8.20;99.90;;;;;;5119491;27;20055;-88
2021/12/14 11:30:15;;;;;;;3.63;3.33;;;8.10;99.90;;;;;;5119216;27;20047;-87
2021/12/14 11:32:43;;;;;;;3.72;3.35;;;8.20;99.90;;;;;;5119367;27;20491;-87
2021/12/14 11:35:27;;;;;;;4.28;3.88;;;8.10;99.90;;;;;;5137108;27;20130;-87
2021/12/14 11:37:57;;;;;;;3.75;3.45;;;8.10;99.90;;;;;;5136913;27;20494;-88
2021/12/14 11:40:26;;;;;;;3.97;3.67;;;8.20;99.90;;;;;;5118743;27;20100;-88
2021/12/14 11:43:11;;;;;;;4.35;4.00;;;8.20;99.90;;;;;;5118637;27;20047;-87
2021/12/14 11:45:41;;;;;;;4.07;3.70;;;8.30;99.90;;;;;;5118767;27;20107;-88
2021/12/14 11:48:08;;;;;;;5.32;3.53;;;8.30;99.90;;;;;;5118945;27;20047;-88
2021/12/14 11:50:47;;;;;;;3.92;3.45;;;8.30;99.90;;;;;;5118563;27;20096;-87
2021/12/14 11:53:17;;;;;;;3.78;3.40;;;8.20;99.90;;;;;;5117838;27;20091;-87
2021/12/14 11:55:53;;;;;;;3.63;3.38;;;8.20;99.90;;;;;;5118388;27;20399;-87
2021/12/14 11:58:33;;;;;;;4.50;3.63;;;8.30;99.90;;;;;;5118498;27;20406;-87
2021/12/14 12:01:04;;;;;;;4.07;3.75;;;8.40;99.90;;;;;;5117786;27;20047;-87
2021/12/14 12:03:57;;;;;;;3.97;3.67;;;8.40;99.90;;;;;;5135765;27;20047;-87
2021/12/14 12:09:32;;;;;;;3.00;2.70;;;8.50;99.90;;;;;;5135511;27;20061;-86
2021/12/14 12:12:08;;;;;;;3.40;3.20;;;8.60;99.90;;;;;;5117736;27;20047;-87
2021/12/14 12:14:46;;;;;;;2.95;2.75;;;8.60;99.90;;;;;;5117466;27;20051;-87
2021/12/14 12:17:16;;;;;;;9.57;6.95;;;8.60;99.90;;;;;;5117009;27;20051;-87
2021/12/14 12:20:21;;;;;;;6.30;5.35;;;8.40;99.90;;;;;;5117144;27;20049;-87
2021/12/14 12:22:59;;;;;;;17.95;10.57;;;8.30;99.90;;;;;;5117919;27;20057;-87
2021/12/14 12:25:51;;;;;;;20.83;14.10;;;8.20;99.90;;;;;;5118648;27;20047;-86
2021/12/14 12:28:23;;;;;;;8.18;5.35;;;8.20;99.90;;;;;;5138535;27;20150;-87
2021/12/14 12:31:05;;;;;;;10.82;5.95;;;8.20;99.90;;;;;;5121668;27;20154;-87
2021/12/14 12:33:41;;;;;;;6.18;4.57;;;8.20;99.90;;;;;;5114873;27;20078;-87
2021/12/14 12:36:08;;;;;;;5.65;4.90;;;8.20;99.90;;;;;;5117205;27;20128;-87
2021/12/14 12:38:45;;;;;;;13.27;10.70;;;8.10;99.90;;;;;;5116772;27;20051;-87
2021/12/14 12:41:42;;;;;;;7.90;6.20;;;8.00;99.90;;;;;;5117332;27;20143;-86
2021/12/14 12:44:16;;;;;;;11.27;5.80;;;8.00;99.90;;;;;;5117889;27;20468;-87
2021/12/14 12:46:57;;;;;;;7.63;5.70;;;8.10;99.90;;;;;;5117112;27;20047;-87
2021/12/14 12:49:28;;;;;;;5.70;5.20;;;8.10;99.90;;;;;;5117334;27;20487;-88
2021/12/14 12:52:29;;;;;;;7.53;5.07;;;8.10;99.90;;;;;;5123186;27;20050;-87
2021/12/14 12:55:17;;;;;;;6.10;5.50;;;8.10;99.90;;;;;;5064256;27;20047;-87
2021/12/14 12:57:58;;;;;;;8.38;6.28;;;7.90;99.90;;;;;;5107425;27;20047;-87
2021/12/14 13:00:36;;;;;;;9.57;7.50;;;7.80;99.90;;;;;;5111122;27;20157;-87
2021/12/14 13:03:27;;;;;;;7.93;6.75;;;7.50;99.90;;;;;;5118573;27;20043;-86
2021/12/14 13:06:05;;;;;;;9.30;7.72;;;7.40;99.90;;;;;;5142191;27;20043;-87
2021/12/14 13:08:43;;;;;;;9.07;7.13;;;7.30;99.90;;;;;;5118540;27;20051;-87
2021/12/14 13:11:35;;;;;;;7.03;6.03;;;7.40;99.90;;;;;;5118521;27;20066;-87
2021/12/14 13:14:12;;;;;;;7.55;6.60;;;7.40;99.90;;;;;;5118387;27;20065;-86
2021/12/14 13:16:49;;;;;;;7.03;6.00;;;7.30;99.90;;;;;;5119194;27;20135;-86
2021/12/14 13:19:23;;;;;;;11.15;7.30;;;7.00;99.90;;;;;;5118924;27;20441;-86
2021/12/14 13:21:57;;;;;;;10.20;8.00;;;7.00;99.90;;;;;;5117213;27;20072;-87
2021/12/14 13:24:33;;;;;;;12.40;8.63;;;7.00;99.90;;;;;;5116271;27;20137;-87
2021/12/14 13:27:09;;;;;;;13.27;7.63;;;6.90;99.90;;;;;;5116159;27;20047;-87
2021/12/14 13:29:52;;;;;;;7.72;6.40;;;7.00;99.90;;;;;;5116274;27;20043;-86
2021/12/14 13:32:27;;;;;;;9.10;6.50;;;6.90;99.90;;;;;;5134423;27;20051;-87
2021/12/14 13:35:09;;;;;;;7.80;6.85;;;6.90;99.90;;;;;;5134333;27;20137;-86
2021/12/14 13:37:48;;;;;;;8.30;7.18;;;6.90;99.90;;;;;;5116522;28;20134;-87
2021/12/14 13:40:18;;;;;;;9.75;6.85;;;7.00;99.90;;;;;;5115705;27;20143;-87
2021/12/14 13:42:51;;;;;;;6.95;6.00;;;6.90;99.90;;;;;;5116873;28;20082;-88
2021/12/14 13:45:24;;;;;;;5.57;5.00;;;7.00;99.90;;;;;;5129506;28;20522;-88
2021/12/14 13:47:54;;;;;;;6.22;5.60;;;7.00;99.90;;;;;;5118788;28;20047;-88
2021/12/14 13:50:34;;;;;;;6.25;5.65;;;7.00;99.90;;;;;;5116123;28;20047;-87
2021/12/14 13:53:02;;;;;;;8.00;5.78;;;7.00;99.90;;;;;;5134039;28;20143;-87
2021/12/14 13:55:42;;;;;;;6.45;5.40;;;7.10;99.90;;;;;;5116208;28;20053;-87
2021/12/14 13:58:19;;;;;;;4.22;3.85;;;7.10;99.90;;;;;;5115950;28;20073;-87
2021/12/14 14:00:54;;;;;;;4.55;3.85;;;7.10;99.90;;;;;;5133853;28;20488;-87
2021/12/14 14:03:26;;;;;;;3.22;3.03;;;6.90;99.90;;;;;;5115892;28;20492;-87
2021/12/14 14:05:53;;;;;;;6.45;3.53;;;7.00;99.90;;;;;;5116164;28;20504;-87